createdAt,value
2023-05-16T00:04:23.072Z,14.81
2023-05-16T00:09:24.952Z,14.76
2023-05-16T00:14:26.961Z,14.72
2023-05-16T00:19:30.245Z,14.67
2023-05-16T00:24:34.395Z,14.62
2023-05-16T00:29:36.209Z,14.59
2023-05-16T00:34:38.012Z,14.57
2023-05-16T00:39:43.020Z,14.56
2023-05-16T00:44:45.086Z,14.53
2023-05-16T00:49:47.440Z,14.50
2023-05-16T00:54:52.428Z,14.48
2023-05-16T00:59:55.094Z,14.45
2023-05-16T01:04:59.606Z,14.42
2023-05-16T01:10:05.046Z,14.38
2023-05-16T01:15:12.804Z,14.38
2023-05-16T01:20:22.326Z,14.36
2023-05-16T01:25:52.504Z,14.34
2023-05-16T01:30:54.631Z,14.31
2023-05-16T01:36:22.762Z,14.27
2023-05-16T01:41:29.326Z,14.23
2023-05-16T01:46:37.503Z,14.18
2023-05-16T01:51:41.747Z,14.13
2023-05-16T01:56:55.848Z,14.09
2023-05-16T02:01:58.242Z,14.04
2023-05-16T02:07:01.998Z,14.01
2023-05-16T02:12:04.664Z,13.97
2023-05-16T02:17:06.615Z,13.93
2023-05-16T02:22:08.479Z,13.91
2023-05-16T02:27:10.696Z,13.88
2023-05-16T02:32:12.423Z,13.85
2023-05-16T02:37:14.718Z,13.82
2023-05-16T02:42:16.653Z,13.82
2023-05-16T02:47:19.765Z,13.82
2023-05-16T02:52:21.606Z,13.81
2023-05-16T02:57:23.399Z,13.82
2023-05-16T03:02:25.686Z,13.83
2023-05-16T03:07:27.827Z,13.83
2023-05-16T03:12:36.639Z,13.83
2023-05-16T03:17:39.837Z,13.81
2023-05-16T03:22:41.917Z,13.81
2023-05-16T03:27:45.751Z,13.79
2023-05-16T03:32:47.614Z,13.77
2023-05-16T03:37:54.915Z,13.79
2023-05-16T03:42:56.866Z,13.80
2023-05-16T03:47:59.022Z,13.83
2023-05-16T03:53:00.995Z,13.85
2023-05-16T03:58:02.879Z,13.83
2023-05-16T04:03:05.094Z,13.82
2023-05-16T04:08:07.404Z,13.84
2023-05-16T04:13:10.312Z,13.88
2023-05-16T04:18:13.520Z,13.89
2023-05-16T04:23:15.602Z,13.96
2023-05-16T04:28:18.206Z,13.97
2023-05-16T04:33:20.263Z,13.97
2023-05-16T04:38:22.718Z,13.93
2023-05-16T04:43:24.794Z,13.93
2023-05-16T04:48:26.818Z,13.89
2023-05-16T04:53:33.387Z,13.85
2023-05-16T04:58:35.304Z,13.79
2023-05-16T05:03:37.641Z,13.77
2023-05-16T05:08:41.532Z,13.75
2023-05-16T05:13:43.597Z,13.71
2023-05-16T05:18:47.817Z,13.66
2023-05-16T05:23:50.123Z,13.67
2023-05-16T05:29:04.546Z,13.71
2023-05-16T05:34:10.075Z,13.77
2023-05-16T05:39:12.064Z,13.78
2023-05-16T05:44:14.009Z,13.82
2023-05-16T05:49:16.195Z,13.88
2023-05-16T05:54:22.034Z,13.83
2023-05-16T05:59:23.898Z,13.81
2023-05-16T06:04:25.893Z,13.82
2023-05-16T06:09:27.837Z,13.82
2023-05-16T06:14:29.856Z,13.77
2023-05-16T06:19:31.729Z,13.75
2023-05-16T06:24:34.149Z,13.71
2023-05-16T06:29:36.776Z,13.76
2023-05-16T06:34:38.684Z,13.77
2023-05-16T06:39:40.524Z,13.78
2023-05-16T06:44:42.414Z,13.80
2023-05-16T06:49:44.319Z,13.71
2023-05-16T06:54:46.205Z,13.63
2023-05-16T06:59:48.075Z,13.52
2023-05-16T07:04:49.914Z,13.42
2023-05-16T07:09:51.838Z,13.33
2023-05-16T07:14:53.980Z,13.19
2023-05-16T07:19:56.093Z,13.06
2023-05-16T07:25:01.401Z,12.98
2023-05-16T07:30:04.326Z,12.93
2023-05-16T07:35:08.162Z,12.89
2023-05-16T07:40:11.969Z,12.83
2023-05-16T07:45:14.147Z,12.78
2023-05-16T07:50:16.675Z,12.69
2023-05-16T07:55:19.940Z,12.63
2023-05-16T08:00:22.312Z,12.65
2023-05-16T08:05:24.775Z,12.63
2023-05-16T08:10:26.831Z,12.56
2023-05-16T08:15:30.926Z,12.47
2023-05-16T08:20:32.929Z,12.43
2023-05-16T08:25:34.894Z,12.42
2023-05-16T08:30:36.927Z,12.40
2023-05-16T08:35:44.095Z,12.38
2023-05-16T08:40:46.113Z,12.45
2023-05-16T08:45:48.033Z,12.51
2023-05-16T08:50:50.381Z,12.52
2023-05-16T08:55:53.719Z,12.50
2023-05-16T09:00:56.670Z,12.51
2023-05-16T09:06:02.180Z,12.46
2023-05-16T09:11:04.654Z,12.44
2023-05-16T09:16:15.091Z,12.48
2023-05-16T09:21:17.249Z,12.56
2023-05-16T09:26:19.662Z,12.59
2023-05-16T09:31:27.312Z,12.57
2023-05-16T09:36:29.286Z,12.62
2023-05-16T09:41:35.703Z,12.69
2023-05-16T09:46:38.696Z,12.67
2023-05-16T09:51:43.824Z,12.67
2023-05-16T09:56:50.953Z,12.75
2023-05-16T10:01:53.811Z,12.80
2023-05-16T10:06:58.898Z,12.79
2023-05-16T10:12:06.697Z,12.74
2023-05-16T10:17:11.537Z,12.70
2023-05-16T10:22:14.595Z,12.75
2023-05-16T10:27:19.310Z,12.83
2023-05-16T10:32:24.449Z,12.87
2023-05-16T10:37:27.728Z,12.83
2023-05-16T10:42:32.474Z,12.81
2023-05-16T10:47:34.823Z,12.84
2023-05-16T10:52:36.749Z,12.89
2023-05-16T10:57:39.801Z,12.87
2023-05-16T11:02:42.266Z,12.90
2023-05-16T11:08:05.183Z,12.93
2023-05-16T11:13:10.128Z,12.90
2023-05-16T11:18:17.092Z,12.96
2023-05-16T11:23:24.353Z,13.01
2023-05-16T11:28:27.702Z,13.04
2023-05-16T11:33:35.804Z,13.06
2023-05-16T11:38:38.063Z,13.08
2023-05-16T11:43:45.516Z,13.19
2023-05-16T11:48:48.124Z,13.33
2023-05-16T11:53:51.583Z,13.50
2023-05-16T11:58:53.951Z,13.72
2023-05-16T12:04:00.481Z,13.78
2023-05-16T12:09:10.034Z,13.77
2023-05-16T12:14:13.533Z,13.88
2023-05-16T12:19:16.058Z,14.07
2023-05-16T12:24:18.249Z,14.15
2023-05-16T12:29:21.795Z,14.11
2023-05-16T12:34:23.940Z,14.11
2023-05-16T12:39:26.390Z,14.13
2023-05-16T12:44:30.602Z,14.11
2023-05-16T12:49:33.524Z,14.13
2023-05-16T12:54:35.543Z,14.15
2023-05-16T12:59:37.682Z,14.13
2023-05-16T13:04:39.761Z,14.05
2023-05-16T13:09:41.934Z,13.99
2023-05-16T13:14:45.695Z,13.92
2023-05-16T13:19:48.919Z,13.91
2023-05-16T13:24:51.731Z,14.00
2023-05-16T13:29:53.656Z,14.08
2023-05-16T13:34:56.035Z,14.11
2023-05-16T13:39:57.988Z,14.08
2023-05-16T13:44:59.857Z,14.06
2023-05-16T13:50:09.488Z,14.12
2023-05-16T13:55:11.542Z,14.21
2023-05-16T14:05:19.210Z,14.11
2023-05-16T14:10:21.538Z,14.04
2023-05-16T14:15:23.403Z,14.00
2023-05-16T14:20:25.450Z,13.99
2023-05-16T14:25:27.638Z,13.98
2023-05-16T14:30:30.182Z,13.95
2023-05-16T14:35:33.245Z,13.90
2023-05-16T14:40:35.189Z,13.83
2023-05-16T14:45:38.323Z,13.75
2023-05-16T14:50:40.182Z,13.68
2023-05-16T14:55:42.217Z,13.64
2023-05-16T15:00:44.281Z,13.60
2023-05-16T15:05:46.343Z,13.54
2023-05-16T15:10:48.318Z,13.47
2023-05-16T15:15:50.713Z,13.44
2023-05-16T15:20:53.346Z,13.43
2023-05-16T15:25:55.320Z,13.44
2023-05-16T15:30:57.193Z,13.47
2023-05-16T15:35:59.143Z,13.43
2023-05-16T15:41:15.871Z,13.49
2023-05-16T15:46:24.356Z,13.60
2023-05-16T15:51:26.239Z,13.68
2023-05-16T15:56:28.134Z,13.73
2023-05-16T16:01:30.006Z,13.79
2023-05-16T16:06:32.047Z,13.94
2023-05-16T16:11:33.926Z,14.00
2023-05-16T16:16:37.476Z,14.05
2023-05-16T16:21:39.355Z,14.14
2023-05-16T16:26:42.636Z,14.18
2023-05-16T16:31:44.684Z,14.21
2023-05-16T16:36:46.822Z,14.22
2023-05-16T16:41:48.958Z,14.25
2023-05-16T16:46:51.776Z,14.29
2023-05-16T16:51:56.038Z,14.30
2023-05-16T16:57:01.565Z,14.33
2023-05-16T17:02:03.465Z,14.35
2023-05-16T17:07:05.664Z,14.36
2023-05-16T17:12:15.179Z,14.33
2023-05-16T17:17:18.819Z,14.32
2023-05-16T17:22:24.127Z,14.30
2023-05-16T17:27:26.116Z,14.27
2023-05-16T17:32:29.380Z,14.22
2023-05-16T17:37:31.311Z,14.20
2023-05-16T17:42:33.206Z,14.16
2023-05-16T17:47:35.427Z,14.13
2023-05-16T17:52:39.926Z,14.13
2023-05-16T17:57:42.654Z,14.12
2023-05-16T18:02:44.722Z,14.08
2023-05-16T18:07:46.767Z,14.03
2023-05-16T18:12:49.242Z,14.00
2023-05-16T18:17:51.277Z,13.97
2023-05-16T18:22:53.198Z,13.95
2023-05-16T18:27:55.080Z,13.93
2023-05-16T18:32:57.215Z,13.90
2023-05-16T18:37:59.417Z,13.84
2023-05-16T18:43:01.421Z,13.77
2023-05-16T18:48:03.572Z,13.70
2023-05-16T18:53:05.555Z,13.63
2023-05-16T18:58:07.456Z,13.56
2023-05-16T19:03:10.083Z,13.48
2023-05-16T19:08:12.095Z,13.41
2023-05-16T19:13:14.059Z,13.31
2023-05-16T19:18:17.842Z,13.21
2023-05-16T19:23:19.889Z,13.15
2023-05-16T19:28:21.776Z,13.08
2023-05-16T19:33:24.010Z,13.02
2023-05-16T19:38:26.893Z,12.96
2023-05-16T19:43:29.666Z,12.93
2023-05-16T19:48:32.039Z,12.90
2023-05-16T19:53:34.210Z,12.84
2023-05-16T19:58:36.096Z,12.79
2023-05-16T20:03:38.146Z,12.74
2023-05-16T20:08:40.197Z,12.69
2023-05-16T20:13:41.964Z,12.64
2023-05-16T20:18:44.628Z,12.58
2023-05-16T20:23:46.600Z,12.53
2023-05-16T20:28:48.411Z,12.49
2023-05-16T20:33:50.333Z,12.44
2023-05-16T20:38:52.325Z,12.42
2023-05-16T20:43:54.527Z,12.37
2023-05-16T20:48:56.460Z,12.33
2023-05-16T20:53:58.345Z,12.28
2023-05-16T20:59:04.241Z,12.22
2023-05-16T21:04:06.442Z,12.17
2023-05-16T21:09:08.322Z,12.13
2023-05-16T21:14:10.275Z,12.08
2023-05-16T21:19:12.272Z,12.03
2023-05-16T21:24:14.205Z,12.00
2023-05-16T21:29:16.049Z,12.00
2023-05-16T21:34:18.034Z,11.96
2023-05-16T21:39:20.220Z,11.93
2023-05-16T21:44:25.233Z,11.88
2023-05-16T21:49:27.223Z,11.81
2023-05-16T21:54:29.134Z,11.76
2023-05-16T21:59:31.016Z,11.72
2023-05-16T22:04:32.960Z,11.68
2023-05-16T22:09:34.823Z,11.65
2023-05-16T22:14:36.842Z,11.63
2023-05-16T22:19:38.850Z,11.59
2023-05-16T22:24:41.162Z,11.51
2023-05-16T22:29:42.942Z,11.49
2023-05-16T22:34:44.879Z,11.45
2023-05-16T22:39:46.928Z,11.44
2023-05-16T22:44:48.875Z,11.41
2023-05-16T22:49:51.174Z,11.39
2023-05-16T22:54:53.012Z,11.37
2023-05-16T22:59:56.072Z,11.36
2023-05-16T23:04:58.493Z,11.32
2023-05-16T23:10:00.617Z,11.25
2023-05-16T23:15:02.568Z,11.20
2023-05-16T23:20:06.100Z,11.15
2023-05-16T23:25:08.914Z,11.12
2023-05-16T23:30:11.450Z,11.07
2023-05-16T23:35:13.591Z,11.02
2023-05-16T23:40:15.407Z,11.00
2023-05-16T23:45:17.288Z,10.96
2023-05-16T23:50:20.958Z,10.89
2023-05-16T23:55:26.071Z,10.84
